Time;durP1;ratioP1;P1;durP2;ratioP2;P2;SDS_P1;SDS_P2;PMS_P1;PMS_P2;Temp;Humidity;BMP_temperature;BMP_pressure;BME280_temperature;BME280_humidity;BME280_pressure;Samples;Min_cycle;Max_cycle;Signal;HPM_P1;HPM_P2
2023/01/22 00:02:22;;;;;;;8.25;4.07;;;;;;;0.87;100.00;102837.69;6224898;28;20525;-69
2023/01/22 00:05:23;;;;;;;7.95;4.45;;;;;;;0.85;100.00;102841.94;6225166;28;20053;-70
2023/01/22 00:08:25;;;;;;;7.00;4.10;;;;;;;0.88;100.00;102840.31;6225011;28;20050;-69
2023/01/22 00:11:28;;;;;;;7.18;4.80;;;;;;;0.89;100.00;102834.28;6224971;28;20052;-69
2023/01/22 00:14:29;;;;;;;8.75;4.90;;;;;;;0.87;100.00;102828.22;6224787;28;20049;-69
2023/01/22 00:17:31;;;;;;;8.75;4.43;;;;;;;0.88;100.00;102829.09;6225133;28;20057;-69
2023/01/22 00:20:33;;;;;;;7.75;4.03;;;;;;;0.87;100.00;102817.84;6224605;28;20052;-69
2023/01/22 00:23:34;;;;;;;5.50;3.42;;;;;;;0.87;100.00;102817.00;6224847;28;20046;-69
2023/01/22 00:26:37;;;;;;;8.73;4.35;;;;;;;0.94;100.00;102822.28;6224157;28;20066;-69
2023/01/22 00:29:39;;;;;;;7.18;4.05;;;;;;;0.89;100.00;102815.28;6224713;28;20053;-70
2023/01/22 00:32:41;;;;;;;8.77;4.55;;;;;;;0.82;100.00;102822.06;6224312;28;20140;-69
2023/01/22 00:35:42;;;;;;;7.70;3.90;;;;;;;0.85;100.00;102813.47;6224259;28;20076;-70
2023/01/22 00:38:44;;;;;;;13.00;4.82;;;;;;;0.91;100.00;102814.50;6224403;28;20592;-69
2023/01/22 00:41:48;;;;;;;8.18;4.43;;;;;;;0.88;100.00;102811.84;6224303;28;20050;-69
2023/01/22 00:44:49;;;;;;;8.77;4.70;;;;;;;0.87;100.00;102815.28;6224051;28;20097;-70
2023/01/22 00:47:51;;;;;;;7.43;3.55;;;;;;;0.83;100.00;102807.41;6224465;28;20057;-69
2023/01/22 00:50:52;;;;;;;9.25;3.30;;;;;;;0.85;100.00;102801.41;6224121;28;20651;-69
2023/01/22 00:53:54;;;;;;;6.25;3.08;;;;;;;0.87;100.00;102815.28;6223803;28;20050;-70
2023/01/22 00:56:56;;;;;;;10.10;4.25;;;;;;;0.80;100.00;102804.75;6224273;28;20050;-69
2023/01/22 00:59:58;;;;;;;7.78;3.42;;;;;;;0.72;100.00;102805.47;6223611;28;20046;-69
2023/01/22 01:06:19;;;;;;;5.57;2.75;;;;;;;0.64;100.00;102812.22;6224223;28;20054;-69
2023/01/22 01:09:21;;;;;;;7.00;3.20;;;;;;;0.58;100.00;102800.84;6223832;28;20045;-69
2023/01/22 01:12:23;;;;;;;11.95;4.82;;;;;;;0.61;100.00;102811.28;6222854;28;20054;-69
2023/01/22 01:15:25;;;;;;;7.80;3.88;;;;;;;0.61;100.00;102811.28;6223792;28;20501;-70
2023/01/22 01:18:26;;;;;;;8.88;3.88;;;;;;;0.55;100.00;102809.44;6223542;28;20046;-70
2023/01/22 01:21:28;;;;;;;8.88;4.70;;;;;;;0.48;100.00;102804.97;6223388;28;20054;-69
2023/01/22 01:24:30;;;;;;;6.55;3.22;;;;;;;0.45;100.00;102812.63;6223257;28;20057;-69
2023/01/22 01:27:32;;;;;;;12.60;3.30;;;;;;;0.44;100.00;102804.00;6222880;28;20050;-69
2023/01/22 01:30:34;;;;;;;9.90;4.75;;;;;;;0.41;100.00;102803.97;6223151;28;20045;-69
2023/01/22 01:33:35;;;;;;;6.82;3.83;;;;;;;0.46;100.00;102797.19;6222958;28;20072;-70
2023/01/22 01:36:36;;;;;;;8.32;3.85;;;;;;;0.46;100.00;102789.41;6222905;28;20490;-69
2023/01/22 01:39:38;;;;;;;7.25;3.55;;;;;;;0.45;100.00;102797.13;6223066;28;20493;-69
2023/01/22 01:42:42;;;;;;;11.90;4.78;;;;;;;0.43;100.00;102794.50;6222902;28;20045;-69
2023/01/22 01:45:44;;;;;;;8.05;3.85;;;;;;;0.46;100.00;102798.91;6222794;28;20414;-69
2023/01/22 01:48:47;;;;;;;8.15;4.50;;;;;;;0.46;100.00;102804.06;6222832;28;20434;-69
2023/01/22 01:51:49;;;;;;;10.07;3.70;;;;;;;0.49;100.00;102802.41;6222506;28;20050;-69
2023/01/22 01:54:56;;;;;;;7.70;3.78;;;;;;;0.38;100.00;102801.31;6222766;28;20054;-69
2023/01/22 01:58:02;;;;;;;8.57;4.07;;;;;;;0.38;100.00;102806.47;6222754;28;20056;-69
2023/01/22 02:01:10;;;;;;;7.03;3.60;;;;;;;0.41;100.00;102795.31;6222630;28;20054;-69
2023/01/22 02:04:11;;;;;;;6.35;3.78;;;;;;;0.40;100.00;102801.31;6222288;28;20049;-69
2023/01/22 02:07:13;;;;;;;7.72;3.55;;;;;;;0.36;100.00;102796.91;6222574;28;20046;-70
2023/01/22 02:10:14;;;;;;;11.30;4.00;;;;;;;0.30;100.00;102797.66;6222258;28;20042;-70
2023/01/22 02:13:22;;;;;;;7.93;4.03;;;;;;;0.23;100.00;102790.63;6222332;28;20403;-70
2023/01/22 02:16:23;;;;;;;4.30;2.75;;;;;;;0.24;100.00;102790.66;6222161;28;20049;-69
2023/01/22 02:19:25;;;;;;;9.68;4.25;;;;;;;0.16;100.00;102791.31;6222117;28;20398;-70
2023/01/22 02:22:30;;;;;;;9.02;3.88;;;;;;;0.16;100.00;102789.59;6222090;28;20049;-70
2023/01/22 02:25:33;;;;;;;6.50;3.75;;;;;;;0.17;100.00;102788.75;6221331;28;20060;-70
2023/01/22 02:28:35;;;;;;;8.10;3.63;;;;;;;0.12;100.00;102781.75;6221655;28;20465;-70
2023/01/22 02:31:36;;;;;;;6.20;3.28;;;;;;;0.14;100.00;102786.13;6221935;28;20057;-70
2023/01/22 02:34:38;;;;;;;7.38;3.75;;;;;;;0.14;100.00;102777.50;6221849;28;20058;-70
2023/01/22 02:37:40;;;;;;;6.15;3.33;;;;;;;0.12;100.00;102787.78;6222325;28;20056;-70
2023/01/22 02:40:47;;;;;;;6.70;3.75;;;;;;;0.12;100.00;102780.03;6221673;28;20089;-70
2023/01/22 02:43:49;;;;;;;5.97;3.20;;;;;;;0.13;100.00;102783.50;6222106;28;20133;-70
2023/01/22 02:46:50;;;;;;;7.22;3.08;;;;;;;0.15;100.00;102776.66;6221941;28;20065;-70
2023/01/22 02:49:51;;;;;;;6.72;3.80;;;;;;;0.08;100.00;102774.75;6222173;28;20560;-70
2023/01/22 02:52:54;;;;;;;12.35;4.05;;;;;;;0.09;100.00;102785.16;6221995;28;20049;-70
2023/01/22 02:55:55;;;;;;;7.55;3.65;;;;;;;0.13;100.00;102778.31;6221646;28;20050;-70
2023/01/22 02:58:57;;;;;;;12.60;3.03;;;;;;;0.09;100.00;102781.66;6222045;28;20056;-70
2023/01/22 03:01:58;;;;;;;5.18;2.88;;;;;;;0.05;100.00;102770.41;6221475;28;20046;-70
2023/01/22 03:05:02;;;;;;;8.02;3.63;;;;;;;-0.01;100.00;102771.13;6221761;28;20054;-70
2023/01/22 03:08:05;;;;;;;6.53;4.07;;;;;;;-0.01;100.00;102776.28;6221780;28;20128;-70
2023/01/22 03:11:07;;;;;;;4.30;3.00;;;;;;;0.01;100.00;102772.91;6221546;28;20324;-70
2023/01/22 03:24:07;;;;;;;5.38;3.25;;;;;;;-0.09;100.00;102762.34;6221519;28;20054;-70
2023/01/22 03:27:08;;;;;;;7.45;4.32;;;;;;;-0.07;100.00;102752.03;6220999;28;20061;-71
2023/01/22 03:30:11;;;;;;;5.10;3.22;;;;;;;-0.06;100.00;102764.09;6221337;28;20050;-71
2023/01/22 03:33:13;;;;;;;7.25;4.18;;;;;;;0.03;100.00;102763.44;6220221;28;20053;-70
2023/01/22 03:36:15;;;;;;;8.18;4.43;;;;;;;-0.05;100.00;102763.25;6222423;28;20046;-71
2023/01/22 03:39:17;;;;;;;7.78;3.78;;;;;;;-0.11;100.00;102755.38;6226086;28;20052;-70
2023/01/22 03:42:19;;;;;;;9.32;4.25;;;;;;;-0.12;100.00;102758.81;6225382;28;20057;-70
2023/01/22 03:45:20;;;;;;;7.80;4.32;;;;;;;-0.12;100.00;102758.81;6225771;28;20054;-71
2023/01/22 03:48:22;;;;;;;8.00;4.03;;;;;;;-0.12;100.00;102762.28;6225674;28;20266;-71
2023/01/22 03:51:23;;;;;;;7.13;3.78;;;;;;;-0.15;100.00;102757.00;6225626;28;20042;-70
2023/01/22 03:54:26;;;;;;;6.03;3.67;;;;;;;-0.19;100.00;102760.38;6226037;28;20050;-71
2023/01/22 03:57:30;;;;;;;7.38;4.53;;;;;;;-0.14;100.00;102760.47;6225582;28;20055;-71
2023/01/22 04:00:31;;;;;;;8.27;3.92;;;;;;;-0.12;100.00;102753.66;6225172;28;20042;-71
2023/01/22 04:03:33;;;;;;;8.25;4.55;;;;;;;-0.12;100.00;102758.81;6225823;28;20057;-71
2023/01/22 04:06:34;;;;;;;5.82;3.90;;;;;;;-0.07;100.00;102762.38;6225166;28;20045;-71
2023/01/22 04:09:37;;;;;;;8.43;4.18;;;;;;;-0.03;100.00;102764.19;6225205;28;20057;-71
2023/01/22 04:12:38;;;;;;;8.30;3.60;;;;;;;-0.06;100.00;102761.53;6225062;28;20049;-71
2023/01/22 04:15:43;;;;;;;6.18;3.55;;;;;;;-0.08;100.00;102765.81;6224837;28;20072;-71
2023/01/22 04:18:44;;;;;;;9.18;4.30;;;;;;;-0.10;100.00;102768.31;6225033;28;20410;-71
2023/01/22 04:21:46;;;;;;;5.57;3.88;;;;;;;-0.06;100.00;102771.88;6224592;28;20054;-71
2023/01/22 04:24:49;;;;;;;8.93;4.32;;;;;;;-0.11;100.00;102770.88;6224916;28;20520;-71
2023/01/22 04:27:50;;;;;;;9.55;5.00;;;;;;;-0.13;100.00;102767.41;6224271;28;20061;-71
2023/01/22 04:30:54;;;;;;;7.68;3.88;;;;;;;-0.08;100.00;102770.97;6224503;28;20049;-71
2023/01/22 04:33:55;;;;;;;9.50;4.35;;;;;;;-0.12;100.00;102771.72;6224416;28;20329;-71
2023/01/22 04:36:57;;;;;;;8.82;3.92;;;;;;;-0.11;100.00;102770.88;6225044;28;20062;-72
2023/01/22 04:39:59;;;;;;;11.70;4.30;;;;;;;-0.12;100.00;102764.84;6224581;28;20050;-71
2023/01/22 04:43:01;;;;;;;10.73;4.63;;;;;;;-0.07;100.00;102770.13;6224712;28;20490;-72
2023/01/22 04:46:03;;;;;;;8.68;4.32;;;;;;;-0.08;100.00;102768.38;6224290;28;20057;-71
2023/01/22 04:49:04;;;;;;;12.23;4.57;;;;;;;-0.08;100.00;102769.25;6223345;28;20046;-72
2023/01/22 04:52:05;;;;;;;6.10;4.28;;;;;;;-0.09;100.00;102767.50;6224170;28;20053;-72
2023/01/22 04:55:09;;;;;;;7.00;4.05;;;;;;;-0.07;100.00;102762.38;6224119;28;20053;-71
2023/01/22 04:58:11;;;;;;;10.38;5.03;;;;;;;-0.06;100.00;102764.97;6224030;28;20429;-72
2023/01/22 05:01:12;;;;;;;12.52;4.28;;;;;;;-0.06;100.00;102757.22;6223969;28;20046;-72
2023/01/22 05:04:14;;;;;;;9.02;4.25;;;;;;;-0.05;100.00;102761.56;6223856;28;20046;-72
2023/01/22 05:07:15;;;;;;;6.20;3.78;;;;;;;-0.06;100.00;102767.56;6224062;28;20054;-72
2023/01/22 05:10:18;;;;;;;7.35;3.90;;;;;;;-0.03;100.00;102762.47;6223698;28;20053;-72
2023/01/22 05:13:19;;;;;;;6.53;3.35;;;;;;;-0.06;100.00;102762.41;6223788;28;20049;-72
2023/01/22 05:16:21;;;;;;;9.40;4.80;;;;;;;-0.02;100.00;102760.75;6223886;28;20046;-72
2023/01/22 05:19:22;;;;;;;6.78;3.60;;;;;;;-0.05;100.00;102758.97;6223781;28;20081;-72
2023/01/22 05:22:23;;;;;;;4.65;3.50;;;;;;;-0.04;100.00;102759.88;6223241;28;20054;-71
2023/01/22 05:25:26;;;;;;;5.88;3.92;;;;;;;-0.05;100.00;102755.50;6223668;28;20050;-71
2023/01/22 05:28:27;;;;;;;5.53;3.55;;;;;;;-0.07;100.00;102747.72;6222906;28;20057;-72
2023/01/22 05:31:29;;;;;;;10.10;4.07;;;;;;;-0.01;100.00;102755.63;6223121;28;20056;-72
2023/01/22 05:34:30;;;;;;;6.28;3.72;;;;;;;0.01;100.00;102753.09;6223198;28;20065;-72
2023/01/22 05:37:32;;;;;;;6.57;3.95;;;;;;;0.02;100.00;102761.72;6223454;28;20053;-72
2023/01/22 05:40:34;;;;;;;7.97;3.78;;;;;;;0.01;100.00;102753.09;6223078;28;20077;-72
2023/01/22 05:43:36;;;;;;;7.32;4.38;;;;;;;-0.02;100.00;102761.63;6222872;28;20070;-72
2023/01/22 05:46:38;;;;;;;10.38;5.10;;;;;;;0.01;100.00;102754.81;6222844;28;20057;-72
2023/01/22 05:49:40;;;;;;;7.60;4.70;;;;;;;0.04;100.00;102766.06;6222783;28;20046;-71
2023/01/22 05:52:41;;;;;;;7.80;4.68;;;;;;;0.06;100.00;102760.94;6222890;28;20050;-72
2023/01/22 05:55:44;;;;;;;7.90;3.78;;;;;;;0.02;100.00;102762.59;6222670;28;20050;-72
2023/01/22 05:58:45;;;;;;;8.80;4.25;;;;;;;0.09;100.00;102766.16;6222595;28;20056;-72
2023/01/22 06:01:47;;;;;;;6.88;4.63;;;;;;;0.04;100.00;102766.06;6222371;28;20046;-72
2023/01/22 06:04:48;;;;;;;8.00;3.45;;;;;;;0.07;100.00;102765.28;6222649;28;20057;-72
2023/01/22 06:07:49;;;;;;;6.07;3.13;;;;;;;0.10;100.00;102766.22;6223070;28;20053;-72
2023/01/22 06:10:58;;;;;;;7.50;4.40;;;;;;;0.11;100.00;102767.09;6222569;28;20082;-72
2023/01/22 06:14:00;;;;;;;8.90;4.07;;;;;;;0.13;100.00;102768.84;6222260;28;20057;-71
2023/01/22 06:17:01;;;;;;;7.05;3.88;;;;;;;0.16;100.00;102770.63;6222613;28;20050;-72
2023/01/22 06:20:02;;;;;;;9.65;3.85;;;;;;;0.17;100.00;102762.03;6222342;28;20136;-72
2023/01/22 06:23:04;;;;;;;6.78;4.22;;;;;;;0.11;100.00;102767.97;6222109;28;20046;-71
2023/01/22 06:26:06;;;;;;;6.97;3.97;;;;;;;0.15;100.00;102764.59;6222076;28;20054;-71
2023/01/22 06:29:08;;;;;;;9.57;4.75;;;;;;;0.17;100.00;102770.66;6222437;28;20049;-72
2023/01/22 06:32:09;;;;;;;8.98;4.05;;;;;;;0.21;100.00;102767.31;6221934;28;20049;-72
2023/01/22 06:35:11;;;;;;;11.05;4.65;;;;;;;0.20;100.00;102769.88;6221948;28;20071;-72
2023/01/22 06:38:12;;;;;;;7.55;4.47;;;;;;;0.21;100.00;102776.78;6222271;28;20054;-72
2023/01/22 06:41:15;;;;;;;7.80;3.97;;;;;;;0.21;100.00;102771.63;6221750;28;20069;-72
2023/01/22 06:44:17;;;;;;;7.60;3.58;;;;;;;0.21;100.00;102767.31;6221968;28;20057;-72
2023/01/22 06:47:19;;;;;;;6.10;3.90;;;;;;;0.22;100.00;102769.06;6221950;28;20060;-72
2023/01/22 06:50:20;;;;;;;8.82;4.03;;;;;;;0.27;100.00;102771.72;6222019;28;20085;-72
2023/01/22 06:53:21;;;;;;;6.13;3.55;;;;;;;0.20;100.00;102773.34;6221902;28;20050;-72
2023/01/22 06:56:24;;;;;;;7.85;3.50;;;;;;;0.20;100.00;102781.09;6222041;28;20072;-72
2023/01/22 06:59:26;;;;;;;14.75;4.57;;;;;;;0.21;100.00;102776.78;6221845;28;20054;-72
2023/01/22 07:02:27;;;;;;;7.03;4.07;;;;;;;0.25;100.00;102782.06;6221743;28;20046;-72
2023/01/22 07:05:28;;;;;;;6.88;4.00;;;;;;;0.27;100.00;102786.38;6221886;28;20050;-72
2023/01/22 07:08:32;;;;;;;12.00;3.47;;;;;;;0.24;100.00;102798.41;6221640;28;20418;-72
2023/01/22 07:11:34;;;;;;;6.53;3.72;;;;;;;0.21;100.00;102793.16;6223494;28;20046;-71
2023/01/22 07:14:36;;;;;;;7.70;3.95;;;;;;;0.27;100.00;102796.72;6226274;28;20058;-72
2023/01/22 07:17:37;;;;;;;7.40;3.95;;;;;;;0.25;100.00;102801.88;6226540;28;20052;-72
2023/01/22 07:20:38;;;;;;;7.88;4.25;;;;;;;0.26;100.00;102806.19;6226232;28;20050;-72
2023/01/22 07:23:41;;;;;;;11.98;3.40;;;;;;;0.27;100.00;102802.75;6226298;28;20057;-72
2023/01/22 07:26:45;;;;;;;9.48;4.65;;;;;;;0.30;100.00;102804.56;6226058;28;20104;-72
2023/01/22 07:29:48;;;;;;;10.80;3.88;;;;;;;0.29;100.00;102808.84;6226149;28;20072;-72
2023/01/22 07:32:50;;;;;;;17.02;4.75;;;;;;;0.31;100.00;102811.47;6225784;28;20697;-72
2023/01/22 07:35:56;;;;;;;7.90;3.78;;;;;;;0.29;100.00;102815.75;6226299;28;20053;-72
2023/01/22 07:38:57;;;;;;;12.77;5.53;;;;;;;0.29;100.00;102821.78;6225940;28;20053;-72
2023/01/22 07:42:00;;;;;;;8.85;4.78;;;;;;;0.33;100.00;102822.75;6225695;28;20049;-72
2023/01/22 07:45:01;;;;;;;10.18;3.83;;;;;;;0.35;100.00;102826.22;6225663;28;20060;-72
2023/01/22 07:48:06;;;;;;;8.10;4.90;;;;;;;0.34;100.00;102819.31;6225883;28;20054;-72
2023/01/22 07:51:08;;;;;;;11.13;4.88;;;;;;;0.35;100.00;102821.91;6225500;28;20486;-71
2023/01/22 07:54:09;;;;;;;9.85;5.18;;;;;;;0.36;100.00;102831.41;6225654;28;20057;-72
2023/01/22 07:57:15;;;;;;;8.95;4.53;;;;;;;0.39;100.00;102836.66;6225543;28;20052;-72
2023/01/22 08:00:17;;;;;;;9.45;5.43;;;;;;;0.38;100.00;102831.47;6225278;28;20056;-72
2023/01/22 08:03:18;;;;;;;9.43;3.80;;;;;;;0.38;100.00;102836.63;6225373;28;20495;-71
2023/01/22 08:06:20;;;;;;;10.27;4.32;;;;;;;0.39;100.00;102841.84;6225242;28;20053;-72
2023/01/22 08:09:24;;;;;;;6.97;4.00;;;;;;;0.43;100.00;102845.38;6225418;28;20108;-72
2023/01/22 08:12:27;;;;;;;6.18;3.47;;;;;;;0.43;100.00;102840.19;6224935;28;20127;-72
2023/01/22 08:15:28;;;;;;;12.60;4.28;;;;;;;0.41;100.00;102845.34;6225114;28;20046;-72
2023/01/22 08:18:30;;;;;;;17.10;4.97;;;;;;;0.43;100.00;102853.13;6224994;28;20137;-71
2023/01/22 08:21:32;;;;;;;15.88;3.92;;;;;;;0.42;100.00;102846.22;6224881;28;20046;-71
2023/01/22 08:24:34;;;;;;;7.38;4.40;;;;;;;0.43;100.00;102856.59;6224712;28;20046;-71
2023/01/22 08:27:37;;;;;;;6.40;3.72;;;;;;;0.48;100.00;102851.50;6224776;28;20148;-72
2023/01/22 08:30:38;;;;;;;4.85;2.97;;;;;;;0.50;100.00;102860.19;6224993;28;20045;-71
2023/01/22 08:33:39;;;;;;;12.77;4.15;;;;;;;0.47;100.00;102860.13;6224468;28;20050;-72
2023/01/22 08:36:41;;;;;;;16.17;4.22;;;;;;;0.48;100.00;102857.56;6224638;28;20046;-71
2023/01/22 08:39:42;;;;;;;5.97;3.60;;;;;;;0.46;100.00;102859.25;6224540;28;20053;-71
2023/01/22 08:42:50;;;;;;;7.53;3.80;;;;;;;0.50;100.00;102858.47;6224413;28;20081;-71
2023/01/22 08:45:51;;;;;;;10.40;4.00;;;;;;;0.46;100.00;102863.56;6224703;28;20050;-71
2023/01/22 08:48:53;;;;;;;6.88;3.42;;;;;;;0.52;100.00;102863.69;6224324;28;20056;-71
2023/01/22 08:51:54;;;;;;;7.68;3.67;;;;;;;0.48;100.00;102872.22;6224314;28;20049;-71
2023/01/22 08:54:55;;;;;;;6.60;2.72;;;;;;;0.50;100.00;102868.84;6224043;28;20050;-71
2023/01/22 08:57:58;;;;;;;6.60;3.67;;;;;;;0.53;100.00;102883.53;6224124;28;20050;-71
2023/01/22 09:01:00;;;;;;;6.18;3.63;;;;;;;0.58;100.00;102881.91;6223930;28;20050;-71
2023/01/22 09:04:01;;;;;;;7.45;3.72;;;;;;;0.58;100.00;102881.91;6223692;28;20046;-71
2023/01/22 09:07:02;;;;;;;7.35;4.10;;;;;;;0.64;100.00;102878.63;6224083;28;20045;-71
2023/01/22 09:10:07;;;;;;;19.05;4.35;;;;;;;0.63;100.00;102877.72;6223584;28;20054;-71
2023/01/22 09:13:10;;;;;;;12.45;4.25;;;;;;;0.60;100.00;102877.66;6223887;28;20516;-71
2023/01/22 09:16:12;;;;;;;11.90;4.53;;;;;;;0.65;100.00;102876.03;6223539;28;20133;-71
2023/01/22 09:19:13;;;;;;;10.35;5.28;;;;;;;0.62;100.00;102875.09;6223772;28;20061;-71
2023/01/22 09:22:14;;;;;;;7.45;4.45;;;;;;;0.63;100.00;102876.84;6223307;28;20050;-71
2023/01/22 09:25:16;;;;;;;16.08;4.40;;;;;;;0.72;100.00;102875.31;6223465;28;20061;-71
2023/01/22 09:28:19;;;;;;;14.52;6.97;;;;;;;0.68;100.00;102881.31;6223194;28;20050;-71
2023/01/22 09:31:20;;;;;;;15.05;7.28;;;;;;;0.69;100.00;102875.28;6223130;28;20050;-71
2023/01/22 09:34:21;;;;;;;19.33;6.82;;;;;;;0.75;100.00;102884.88;6222641;28;20049;-71
2023/01/22 09:37:24;;;;;;;11.52;5.32;;;;;;;0.78;100.00;102877.19;6223533;28;20049;-71
2023/01/22 09:40:28;;;;;;;27.80;8.80;;;;;;;0.79;100.00;102876.34;6223073;28;20085;-71
2023/01/22 09:43:34;;;;;;;37.00;7.88;;;;;;;0.81;100.00;102879.81;6222956;28;20049;-71
2023/01/22 09:46:39;;;;;;;14.40;5.50;;;;;;;0.84;100.00;102881.63;6223075;28;20049;-71
2023/01/22 09:49:50;;;;;;;35.42;8.55;;;;;;;0.84;100.00;102882.50;6222798;28;20057;-71
2023/01/22 09:55:59;;;;;;;28.55;12.30;;;;;;;0.86;100.00;102878.22;6244692;28;20444;-73
2023/01/22 09:59:04;;;;;;;32.47;7.47;;;;;;;0.90;100.00;102879.16;6260449;28;20049;-73
2023/01/22 10:02:20;;;;;;;16.63;7.22;;;;;;;0.89;100.00;102880.00;6268213;28;20489;-73
2023/01/22 10:05:29;;;;;;;11.00;5.88;;;;;;;0.94;100.00;102878.38;6246987;28;20050;-73
2023/01/22 10:08:34;;;;;;;14.35;7.85;;;;;;;0.97;100.00;102888.81;6247345;28;20050;-73
2023/01/22 10:11:36;;;;;;;12.35;5.95;;;;;;;1.00;100.00;102887.16;6246744;28;20417;-73
2023/01/22 10:14:41;;;;;;;18.92;6.60;;;;;;;0.96;100.00;102884.47;6246652;28;20057;-73
2023/01/22 10:17:43;;;;;;;13.82;5.10;;;;;;;0.88;100.00;102884.31;6247061;28;20053;-73
2023/01/22 10:20:44;;;;;;;8.43;3.90;;;;;;;0.92;100.00;102880.06;6246661;28;20497;-74
2023/01/22 10:23:47;;;;;;;7.75;4.38;;;;;;;0.92;100.00;102880.94;6246656;28;20058;-73
2023/01/22 10:26:51;;;;;;;12.35;4.20;;;;;;;0.94;100.00;102879.25;6246510;28;20053;-74
2023/01/22 10:30:01;;;;;;;13.18;6.13;;;;;;;0.96;100.00;102879.28;6246597;28;20053;-74
2023/01/22 10:33:04;;;;;;;15.07;9.10;;;;;;;0.98;100.00;102880.19;6246621;28;20049;-73
2023/01/22 10:36:06;;;;;;;13.98;5.57;;;;;;;0.92;100.00;102878.34;6246610;28;20053;-74
2023/01/22 10:39:13;;;;;;;12.60;4.35;;;;;;;0.97;100.00;102878.44;6246591;28;20056;-74
2023/01/22 10:42:16;;;;;;;8.15;4.25;;;;;;;1.01;100.00;102869.91;6246569;28;20045;-74
2023/01/22 10:45:19;;;;;;;8.48;4.57;;;;;;;1.05;100.00;102878.63;6246258;28;20133;-74
2023/01/22 10:48:22;;;;;;;8.65;4.38;;;;;;;1.04;100.00;102880.31;6251665;28;20053;-74
2023/01/22 10:51:31;;;;;;;13.10;5.25;;;;;;;1.03;100.00;102873.38;6251192;28;20049;-74
2023/01/22 10:54:34;;;;;;;;;;;;;;;0.97;100.00;102878.44;6251836;28;20512;-74
2023/01/22 10:57:36;;;;;;;13.23;5.20;;;;;;;1.00;100.00;102879.38;6251450;28;19925;-74
2023/01/22 11:00:39;;;;;;;9.57;5.00;;;;;;;1.01;100.00;102872.50;6251667;28;20046;-75
2023/01/22 11:03:41;;;;;;;8.23;3.65;;;;;;;1.03;100.00;102878.56;6250998;28;20497;-75
2023/01/22 11:06:49;;;;;;;15.35;6.07;;;;;;;1.10;100.00;102877.00;6251364;28;20068;-75
2023/01/22 11:09:55;;;;;;;14.35;6.53;;;;;;;1.12;100.00;102876.16;6251014;28;20057;-75
2023/01/22 11:12:59;;;;;;;11.45;4.43;;;;;;;1.14;100.00;102873.63;6251368;28;20053;-75
2023/01/22 11:16:09;;;;;;;13.35;6.03;;;;;;;1.16;100.00;102874.50;6251417;28;20053;-73
2023/01/22 11:19:13;;;;;;;8.60;3.95;;;;;;;1.23;100.00;102873.81;6251228;28;20301;-75
2023/01/22 11:22:23;;;;;;;13.82;6.43;;;;;;;1.23;100.00;102872.09;6250636;28;20056;-75
2023/01/22 11:25:26;;;;;;;11.40;6.50;;;;;;;1.24;100.00;102871.22;6250795;28;20060;-75
2023/01/22 11:28:40;;;;;;;9.15;4.85;;;;;;;1.25;100.00;102880.75;6250525;28;20049;-75
2023/01/22 11:31:57;;;;;;;18.63;8.05;;;;;;;1.26;100.00;102879.03;6250478;28;20509;-75
2023/01/22 11:35:12;;;;;;;16.00;6.88;;;;;;;1.26;100.00;102886.78;6250308;28;20049;-75
2023/01/22 11:38:26;;;;;;;14.07;5.40;;;;;;;1.25;100.00;102882.47;6250712;28;20049;-75
2023/01/22 11:41:41;;;;;;;18.70;6.40;;;;;;;1.27;100.00;102878.16;6250239;28;20057;-75
2023/01/22 11:44:58;;;;;;;20.15;8.20;;;;;;;1.27;100.00;102880.75;6250193;28;20041;-75
2023/01/22 11:48:16;;;;;;;19.13;5.82;;;;;;;1.30;100.00;102877.38;6250568;28;20520;-75
2023/01/22 11:51:23;;;;;;;21.55;7.60;;;;;;;1.29;100.00;102868.72;6250053;28;20498;-74
2023/01/22 11:54:59;;;;;;;35.72;8.88;;;;;;;1.30;100.00;102872.19;6250039;28;20053;-75
2023/01/22 11:58:11;;;;;;;18.30;5.78;;;;;;;1.34;100.00;102874.00;6249665;28;20057;-75
2023/01/22 12:01:22;;;;;;;7.85;3.70;;;;;;;1.36;100.00;102869.69;6249817;28;20501;-74
2023/01/22 12:04:45;;;;;;;8.20;3.60;;;;;;;1.38;100.00;102862.84;6249711;28;20053;-74
2023/01/22 12:07:59;;;;;;;8.88;3.45;;;;;;;1.37;100.00;102863.69;6249929;28;20060;-75
2023/01/22 12:11:16;;;;;;;6.63;4.13;;;;;;;1.38;100.00;102866.31;6249755;28;20057;-75
2023/01/22 12:14:29;;;;;;;11.93;4.50;;;;;;;1.40;100.00;102864.59;6249575;28;20050;-75
2023/01/22 12:17:47;;;;;;;7.45;3.30;;;;;;;1.43;100.00;102867.28;6249764;28;20061;-75
2023/01/22 12:21:06;;;;;;;7.00;4.60;;;;;;;1.47;100.00;102871.66;6249293;28;20061;-75
2023/01/22 12:24:12;;;;;;;8.57;3.33;;;;;;;1.51;100.00;102864.81;6249377;28;20072;-75
2023/01/22 12:27:22;;;;;;;9.30;4.07;;;;;;;1.57;100.00;102867.53;6249041;28;20050;-74
2023/01/22 12:30:27;;;;;;;7.22;3.55;;;;;;;1.64;100.00;102871.97;6249188;28;20057;-75
2023/01/22 12:33:33;;;;;;;12.65;3.97;;;;;;;1.63;100.00;102865.03;6249487;28;20049;-74
2023/01/22 12:36:36;;;;;;;10.77;4.63;;;;;;;1.64;100.00;102868.53;6249070;28;20049;-75
2023/01/22 12:39:45;;;;;;;8.18;3.95;;;;;;;1.70;100.00;102876.38;6249243;28;20052;-75
2023/01/22 12:42:51;;;;;;;9.27;3.72;;;;;;;1.66;100.00;102874.59;6249657;28;20049;-74
2023/01/22 12:45:57;;;;;;;8.88;4.55;;;;;;;1.69;100.00;102878.13;6249033;28;20049;-75
2023/01/22 12:49:05;;;;;;;51.63;16.83;;;;;;;1.75;100.00;102875.63;6248948;28;20045;-75
2023/01/22 12:52:28;;;;;;;21.80;6.90;;;;;;;1.75;100.00;102878.22;6248942;28;20046;-75
2023/01/22 12:55:33;;;;;;;115.78;34.05;;;;;;;1.78;100.00;102880.88;6248434;28;20513;-75
2023/01/22 12:58:40;;;;;;;29.55;11.85;;;;;;;1.82;100.00;102876.63;6249080;28;20049;-75
2023/01/22 13:01:41;;;;;;;26.02;12.07;;;;;;;1.87;100.00;102880.16;6248473;28;20054;-74
2023/01/22 13:04:42;;;;;;;19.52;10.13;;;;;;;1.87;100.00;102877.56;6248450;28;20045;-73
2023/01/22 13:07:46;;;;;;;12.90;7.07;;;;;;;1.93;100.00;102875.06;6248414;28;20060;-73
2023/01/22 13:10:54;;;;;;;11.40;5.80;;;;;;;1.96;100.00;102880.31;6247658;28;20049;-75
2023/01/22 13:13:59;;;;;;;9.05;4.80;;;;;;;1.94;100.00;102876.78;6248214;28;20053;-74
2023/01/22 13:17:03;;;;;;;7.47;4.45;;;;;;;1.95;100.00;102869.88;6248333;28;20064;-74
2023/01/22 13:20:14;;;;;;;9.52;4.60;;;;;;;1.99;100.00;102869.97;6248139;28;20107;-73
2023/01/22 13:23:17;;;;;;;12.07;4.18;;;;;;;2.06;100.00;102872.69;6248173;28;20045;-73
2023/01/22 13:26:21;;;;;;;16.52;7.78;;;;;;;2.09;100.00;102873.59;6247652;28;20050;-74
2023/01/22 13:29:27;;;;;;;13.27;6.10;;;;;;;2.13;100.00;102871.91;6248085;28;20049;-75
2023/01/22 13:32:29;;;;;;;11.70;5.18;;;;;;;2.14;100.00;102873.69;6247777;28;20157;-75
2023/01/22 13:35:31;;;;;;;16.30;9.63;;;;;;;2.14;100.00;102877.13;6247919;28;20053;-74
2023/01/22 13:38:33;;;;;;;8.93;4.53;;;;;;;2.09;100.00;102880.47;6247957;28;20053;-75
2023/01/22 13:41:37;;;;;;;10.38;5.22;;;;;;;2.11;100.00;102886.59;6247491;28;20060;-73
2023/01/22 13:44:41;;;;;;;8.45;4.68;;;;;;;2.11;100.00;102887.44;6247614;28;20049;-74
2023/01/22 13:47:42;;;;;;;9.95;4.25;;;;;;;2.09;100.00;102885.66;6247439;28;20045;-75
2023/01/22 13:50:53;;;;;;;6.80;3.40;;;;;;;2.08;100.00;102883.94;6247533;28;20049;-74
2023/01/22 13:53:56;;;;;;;8.25;3.53;;;;;;;2.07;100.00;102888.25;6247212;28;20389;-73
2023/01/22 13:56:58;;;;;;;8.30;4.35;;;;;;;2.08;100.00;102887.41;6247428;28;20057;-75
2023/01/22 14:00:02;;;;;;;12.52;5.25;;;;;;;2.05;100.00;102895.16;6247182;28;20045;-75
2023/01/22 14:03:20;;;;;;;8.90;3.67;;;;;;;2.09;100.00;102894.34;6247161;28;20048;-75
2023/01/22 14:06:21;;;;;;;9.57;4.18;;;;;;;2.12;100.00;102902.16;6247056;28;20080;-75
2023/01/22 14:09:30;;;;;;;12.05;4.03;;;;;;;2.13;100.00;102898.72;6247235;28;20497;-74
2023/01/22 14:12:31;;;;;;;6.80;4.00;;;;;;;2.14;100.00;102904.81;6246802;28;20489;-74
2023/01/22 14:15:33;;;;;;;14.60;3.88;;;;;;;2.17;100.00;102910.88;6246916;28;20053;-74
2023/01/22 14:18:34;;;;;;;8.88;5.07;;;;;;;2.17;100.00;102913.47;6246786;28;20045;-74
2023/01/22 14:21:36;;;;;;;7.30;4.30;;;;;;;2.16;100.00;102913.47;6246808;28;20050;-74
2023/01/22 14:24:38;;;;;;;13.80;5.70;;;;;;;2.20;100.00;102915.25;6246559;28;20485;-75
2023/01/22 14:27:42;;;;;;;12.55;3.72;;;;;;;2.20;100.00;102915.25;6246698;28;20055;-74